createdAt,value
2019-03-29T00:00:14.658Z,9.90
2019-03-29T00:02:45.631Z,9.17
2019-03-29T00:05:15.024Z,9.70
2019-03-29T00:07:44.370Z,10.03
2019-03-29T00:10:13.717Z,10.20
2019-03-29T00:12:43.043Z,11.27
2019-03-29T00:15:12.377Z,11.17
2019-03-29T00:17:41.699Z,11.43
2019-03-29T00:20:11.047Z,10.07
2019-03-29T00:22:40.375Z,11.97
2019-03-29T00:25:09.797Z,11.70
2019-03-29T00:27:39.132Z,10.40
2019-03-29T00:30:08.664Z,11.73
2019-03-29T00:32:38.004Z,11.43
2019-03-29T00:35:08.532Z,10.63
2019-03-29T00:37:37.860Z,11.33
2019-03-29T00:40:07.619Z,11.00
2019-03-29T00:42:37.043Z,11.40
2019-03-29T00:45:07.892Z,12.33
2019-03-29T00:47:37.227Z,11.20
2019-03-29T00:50:07.624Z,11.77
2019-03-29T00:52:37.009Z,11.70
2019-03-29T00:55:07.182Z,12.00
2019-03-29T00:57:37.484Z,13.77
2019-03-29T01:00:08.647Z,13.50
2019-03-29T01:02:37.984Z,14.07
2019-03-29T01:05:07.543Z,15.30
2019-03-29T01:07:36.964Z,15.70
2019-03-29T01:10:07.219Z,15.63
2019-03-29T01:12:36.559Z,15.00
2019-03-29T01:15:09.178Z,15.57
2019-03-29T01:17:38.844Z,16.13
2019-03-29T01:20:08.720Z,15.80
2019-03-29T01:22:38.048Z,15.67
2019-03-29T01:25:08.640Z,16.20
2019-03-29T01:27:38.063Z,16.67
2019-03-29T01:30:08.516Z,16.97
2019-03-29T01:32:37.853Z,16.70
2019-03-29T01:35:09.156Z,17.63
2019-03-29T01:37:38.638Z,18.80
2019-03-29T01:40:09.079Z,22.17
2019-03-29T01:42:38.739Z,20.93
2019-03-29T01:45:08.698Z,20.50
2019-03-29T01:47:38.054Z,20.83
2019-03-29T01:50:08.165Z,20.27
2019-03-29T01:52:38.788Z,21.93
2019-03-29T01:55:08.358Z,23.17
2019-03-29T01:57:37.687Z,21.23
2019-03-29T02:00:09.033Z,23.77
2019-03-29T02:02:38.655Z,25.13
2019-03-29T02:05:08.153Z,23.43
2019-03-29T02:07:38.221Z,24.30
2019-03-29T02:10:09.355Z,22.77
2019-03-29T02:12:38.705Z,22.83
2019-03-29T02:15:08.607Z,24.03
2019-03-29T02:17:38.130Z,26.57
2019-03-29T02:20:07.690Z,26.27
2019-03-29T02:22:37.116Z,26.47
2019-03-29T02:25:08.566Z,28.60
2019-03-29T02:27:38.048Z,25.97
2019-03-29T02:30:08.229Z,24.17
2019-03-29T02:32:37.622Z,25.57
2019-03-29T02:35:07.972Z,25.20
2019-03-29T02:37:37.309Z,25.63
2019-03-29T02:40:07.829Z,25.87
2019-03-29T02:42:37.182Z,26.30
2019-03-29T02:45:07.029Z,27.03
2019-03-29T02:47:36.419Z,27.83
2019-03-29T02:50:08.591Z,24.67
2019-03-29T02:52:37.762Z,23.80
2019-03-29T02:55:07.725Z,24.53
2019-03-29T02:57:37.045Z,24.80
2019-03-29T03:00:10.576Z,23.83
2019-03-29T03:02:39.980Z,22.93
2019-03-29T03:05:10.936Z,23.43
2019-03-29T03:07:40.254Z,25.00
2019-03-29T03:10:11.624Z,24.50
2019-03-29T03:12:40.944Z,23.20
2019-03-29T03:15:10.928Z,22.33
2019-03-29T03:17:40.517Z,22.33
2019-03-29T03:20:15.095Z,21.37
2019-03-29T03:22:43.204Z,21.57
2019-03-29T03:25:12.896Z,23.03
2019-03-29T03:27:42.285Z,21.20
2019-03-29T03:30:12.950Z,22.03
2019-03-29T03:32:42.389Z,21.33
2019-03-29T03:35:12.630Z,23.40
2019-03-29T03:37:43.010Z,22.17
2019-03-29T03:40:13.668Z,22.17
2019-03-29T03:42:44.943Z,21.47
2019-03-29T03:45:14.319Z,21.17
2019-03-29T03:47:43.671Z,20.80
2019-03-29T03:50:16.148Z,21.20
2019-03-29T03:52:45.549Z,20.93
2019-03-29T03:55:14.879Z,21.80
2019-03-29T03:57:44.409Z,21.70
2019-03-29T04:00:14.005Z,21.70
2019-03-29T04:02:43.397Z,21.80
2019-03-29T04:05:13.827Z,21.77
2019-03-29T04:07:43.249Z,21.20
2019-03-29T04:10:12.578Z,21.77
2019-03-29T04:12:41.987Z,22.10
2019-03-29T04:15:23.765Z,22.53
2019-03-29T04:17:53.117Z,20.53
2019-03-29T04:20:22.537Z,22.10
2019-03-29T04:22:51.856Z,22.07
2019-03-29T04:25:21.212Z,22.23
2019-03-29T04:27:50.576Z,22.10
2019-03-29T04:30:19.921Z,25.33
2019-03-29T04:32:49.299Z,22.53
2019-03-29T04:35:18.652Z,22.63
2019-03-29T04:37:47.977Z,22.47
2019-03-29T04:40:17.298Z,23.63
2019-03-29T04:42:46.660Z,26.40
2019-03-29T04:45:15.981Z,25.77
2019-03-29T04:47:45.320Z,23.53
2019-03-29T04:50:14.631Z,23.93
2019-03-29T04:52:43.976Z,24.47
2019-03-29T04:55:13.373Z,23.07
2019-03-29T04:57:42.798Z,24.37
2019-03-29T05:00:12.306Z,24.63
2019-03-29T05:02:41.651Z,23.97
2019-03-29T05:05:10.980Z,26.30
2019-03-29T05:07:40.327Z,24.73
2019-03-29T05:10:20.547Z,24.67
2019-03-29T05:12:42.102Z,25.00
2019-03-29T05:15:11.563Z,24.93
2019-03-29T05:17:40.891Z,26.30
2019-03-29T05:20:10.375Z,26.20
2019-03-29T05:22:39.703Z,25.63
2019-03-29T05:25:09.032Z,24.70
2019-03-29T05:27:38.392Z,26.47
2019-03-29T05:30:08.123Z,27.63
2019-03-29T05:32:37.455Z,25.33
2019-03-29T05:35:07.368Z,25.60
2019-03-29T05:37:36.790Z,26.73
2019-03-29T05:40:06.739Z,25.80
2019-03-29T05:42:36.135Z,26.57
2019-03-29T05:45:08.695Z,26.37
2019-03-29T05:47:38.023Z,27.17
2019-03-29T05:50:08.113Z,26.80
2019-03-29T05:52:37.508Z,25.87
2019-03-29T05:55:07.097Z,26.77
2019-03-29T05:57:36.433Z,26.80
2019-03-29T06:00:07.451Z,26.27
2019-03-29T06:02:37.776Z,24.53
2019-03-29T06:05:07.160Z,23.17
2019-03-29T06:07:36.535Z,23.13
2019-03-29T06:10:08.412Z,24.17
2019-03-29T06:12:37.771Z,22.43
2019-03-29T06:15:08.512Z,20.70
2019-03-29T06:17:47.901Z,20.17
2019-03-29T06:20:10.243Z,20.27
2019-03-29T06:22:39.572Z,21.80
2019-03-29T06:25:10.934Z,20.03
2019-03-29T06:27:40.496Z,19.87
2019-03-29T06:30:11.052Z,19.90
2019-03-29T06:32:40.375Z,18.60
2019-03-29T06:35:09.716Z,19.10
2019-03-29T06:37:41.488Z,18.27
2019-03-29T06:40:19.561Z,18.67
2019-03-29T06:42:48.884Z,20.67
2019-03-29T06:45:18.219Z,17.90
2019-03-29T06:47:47.577Z,18.80
2019-03-29T06:50:16.992Z,18.90
2019-03-29T06:52:46.415Z,18.87
2019-03-29T06:55:16.743Z,18.63
2019-03-29T06:57:46.101Z,18.43
2019-03-29T07:00:15.680Z,18.03
2019-03-29T07:02:45.022Z,18.17
2019-03-29T07:05:14.355Z,17.77
2019-03-29T07:07:44.627Z,18.57
2019-03-29T07:10:14.105Z,17.73
2019-03-29T07:12:43.467Z,18.67
2019-03-29T07:15:12.799Z,18.00
2019-03-29T07:17:42.127Z,18.07
2019-03-29T07:20:11.699Z,17.87
2019-03-29T07:22:41.029Z,17.80
2019-03-29T07:25:10.916Z,18.65
2019-03-29T07:27:45.861Z,17.20
2019-03-29T07:30:12.037Z,16.73
2019-03-29T07:32:41.363Z,17.62
2019-03-29T07:35:10.863Z,18.37
2019-03-29T07:37:40.202Z,15.80
2019-03-29T07:40:09.674Z,15.55
2019-03-29T07:42:39.079Z,15.55
2019-03-29T07:45:10.388Z,14.98
2019-03-29T07:47:39.867Z,16.67
2019-03-29T07:50:09.375Z,14.95
2019-03-29T07:52:39.284Z,21.77
2019-03-29T07:55:08.759Z,13.85
2019-03-29T07:57:39.155Z,14.07
2019-03-29T08:00:08.959Z,13.43
2019-03-29T08:02:38.298Z,13.05
2019-03-29T08:05:08.195Z,12.85
2019-03-29T08:07:37.818Z,13.35
2019-03-29T08:10:07.485Z,12.40
2019-03-29T08:12:40.378Z,12.40
2019-03-29T08:15:09.822Z,11.95
2019-03-29T08:17:39.578Z,11.95
2019-03-29T08:20:37.402Z,12.35
2019-03-29T08:22:39.974Z,12.37
2019-03-29T08:25:09.480Z,11.78
2019-03-29T08:27:38.848Z,11.83
2019-03-29T08:30:08.528Z,13.38
2019-03-29T08:32:37.972Z,12.33
2019-03-29T08:35:07.476Z,11.83
2019-03-29T08:37:37.776Z,12.40
2019-03-29T08:40:07.276Z,12.03
2019-03-29T08:42:36.615Z,12.45
2019-03-29T08:45:07.281Z,13.30
2019-03-29T08:47:36.633Z,14.38
2019-03-29T08:50:07.681Z,12.63
2019-03-29T08:52:38.084Z,13.48
2019-03-29T08:55:07.749Z,13.62
2019-03-29T08:57:37.091Z,13.20
2019-03-29T09:00:08.235Z,13.40
2019-03-29T09:02:38.061Z,13.48
2019-03-29T09:05:07.571Z,14.00
2019-03-29T09:07:44.479Z,14.57
2019-03-29T09:10:13.776Z,14.90
2019-03-29T09:12:43.416Z,15.80
2019-03-29T09:15:12.742Z,15.07
2019-03-29T09:17:42.072Z,15.17
2019-03-29T09:20:11.563Z,14.77
2019-03-29T09:22:40.907Z,15.20
2019-03-29T09:25:10.249Z,15.70
2019-03-29T09:27:39.666Z,16.00
2019-03-29T09:30:09.181Z,15.67
2019-03-29T09:32:38.588Z,16.10
2019-03-29T09:35:08.373Z,16.00
2019-03-29T09:37:37.711Z,15.77
2019-03-29T09:40:07.276Z,16.10
2019-03-29T09:42:36.627Z,16.37
2019-03-29T09:45:07.499Z,15.90
2019-03-29T09:47:40.357Z,17.20
2019-03-29T09:50:10.354Z,16.43
2019-03-29T09:52:39.739Z,17.70
2019-03-29T09:55:09.322Z,16.73
2019-03-29T09:57:38.720Z,17.27
2019-03-29T10:00:20.634Z,17.93
2019-03-29T10:02:40.426Z,17.50
2019-03-29T10:05:09.946Z,17.63
2019-03-29T10:07:39.283Z,16.87
2019-03-29T10:10:09.439Z,18.30
2019-03-29T10:12:43.626Z,17.90
2019-03-29T10:15:10.078Z,18.20
2019-03-29T10:17:39.424Z,18.40
2019-03-29T10:20:09.079Z,18.07
2019-03-29T10:22:38.439Z,18.90
2019-03-29T10:25:19.271Z,18.17
2019-03-29T10:27:39.623Z,18.43
2019-03-29T10:30:09.492Z,18.03
2019-03-29T10:32:38.854Z,19.07
2019-03-29T10:35:08.610Z,18.80
2019-03-29T10:37:37.966Z,19.40
2019-03-29T10:40:08.260Z,19.53
2019-03-29T10:42:40.007Z,18.73
2019-03-29T10:45:09.784Z,19.50
2019-03-29T10:47:43.745Z,19.83
2019-03-29T10:50:10.323Z,18.40
2019-03-29T10:52:39.678Z,19.47
2019-03-29T10:55:09.263Z,19.40
2019-03-29T10:57:38.612Z,24.73
2019-03-29T11:00:12.112Z,19.77
2019-03-29T11:02:41.531Z,19.57
2019-03-29T11:05:11.034Z,19.37
2019-03-29T11:07:40.372Z,20.03
2019-03-29T11:10:12.883Z,20.97
2019-03-29T11:12:42.236Z,22.63
2019-03-29T11:15:11.723Z,18.80
2019-03-29T11:17:41.097Z,20.17
2019-03-29T11:20:10.589Z,19.87
2019-03-29T11:22:40.574Z,19.33
2019-03-29T11:25:09.933Z,19.27
2019-03-29T11:27:40.230Z,19.80
2019-03-29T11:30:09.657Z,18.77
2019-03-29T11:32:38.994Z,20.13
2019-03-29T11:35:08.963Z,21.63
2019-03-29T11:37:38.291Z,20.03
2019-03-29T11:40:07.819Z,21.87
2019-03-29T11:42:37.141Z,20.87
2019-03-29T11:45:07.166Z,20.63
2019-03-29T11:47:36.490Z,21.00
2019-03-29T11:50:06.496Z,20.53
2019-03-29T11:52:35.819Z,20.00
2019-03-29T11:55:06.527Z,21.43
2019-03-29T11:57:35.868Z,20.80
2019-03-29T12:00:07.732Z,20.37
2019-03-29T12:02:37.071Z,20.63
2019-03-29T12:05:06.684Z,21.20
2019-03-29T12:07:36.044Z,20.60
2019-03-29T12:10:06.193Z,21.03
2019-03-29T12:12:35.630Z,20.43
2019-03-29T12:15:07.818Z,20.73
2019-03-29T12:17:37.144Z,19.63
2019-03-29T12:20:07.988Z,20.20
2019-03-29T12:22:37.332Z,19.57
2019-03-29T12:25:08.005Z,20.40
2019-03-29T12:27:37.327Z,20.77
2019-03-29T12:30:08.672Z,20.63
2019-03-29T12:32:39.012Z,20.37
2019-03-29T12:35:10.045Z,19.93
2019-03-29T12:37:39.678Z,20.73
2019-03-29T12:40:09.470Z,22.13
2019-03-29T12:42:38.795Z,22.33
2019-03-29T12:45:08.772Z,23.97
2019-03-29T12:47:38.095Z,21.73
2019-03-29T12:50:08.375Z,20.30
2019-03-29T12:52:37.715Z,21.87
2019-03-29T12:55:08.779Z,20.67
2019-03-29T12:57:39.223Z,20.53
2019-03-29T13:00:09.759Z,21.50
2019-03-29T13:02:39.093Z,20.87
2019-03-29T13:05:08.983Z,20.37
2019-03-29T13:07:38.346Z,21.63
2019-03-29T13:10:09.786Z,21.27
2019-03-29T13:12:39.129Z,21.60
2019-03-29T13:15:09.601Z,21.70
2019-03-29T13:17:38.931Z,22.40
2019-03-29T13:20:08.819Z,21.53
2019-03-29T13:22:38.154Z,21.40
2019-03-29T13:25:07.887Z,22.57
2019-03-29T13:27:37.277Z,22.03
2019-03-29T13:30:08.660Z,21.70
2019-03-29T13:32:37.996Z,22.37
2019-03-29T13:35:07.859Z,22.53
2019-03-29T13:37:38.160Z,22.93
2019-03-29T13:40:08.923Z,22.87
2019-03-29T13:42:38.279Z,20.87
2019-03-29T13:45:08.274Z,22.17
2019-03-29T13:47:37.945Z,22.03
2019-03-29T13:50:10.706Z,23.73
2019-03-29T13:52:40.131Z,22.03
2019-03-29T13:55:09.891Z,23.10
2019-03-29T13:57:39.227Z,21.80
2019-03-29T14:00:10.179Z,22.90
2019-03-29T14:02:39.581Z,22.70
2019-03-29T14:05:08.976Z,23.80
2019-03-29T14:07:38.359Z,22.87
2019-03-29T14:10:09.443Z,23.03
2019-03-29T14:12:39.645Z,22.90
2019-03-29T14:15:10.614Z,23.17
2019-03-29T14:17:39.950Z,23.00
2019-03-29T14:20:09.721Z,23.47
2019-03-29T14:22:39.057Z,24.80
2019-03-29T14:25:08.665Z,24.10
2019-03-29T14:27:38.062Z,22.57
2019-03-29T14:30:08.139Z,22.87
2019-03-29T14:32:38.612Z,23.60
2019-03-29T14:35:08.689Z,23.07
2019-03-29T14:37:38.022Z,24.00
2019-03-29T14:40:08.558Z,24.53
2019-03-29T14:42:37.955Z,24.07
2019-03-29T14:45:08.988Z,24.13
2019-03-29T14:47:42.985Z,23.60
2019-03-29T14:50:10.097Z,24.67
2019-03-29T14:52:40.501Z,24.23
2019-03-29T14:55:09.843Z,24.57
2019-03-29T14:57:39.236Z,25.10
2019-03-29T15:00:11.398Z,25.63
2019-03-29T15:02:40.867Z,25.10
2019-03-29T15:05:10.465Z,25.77
2019-03-29T15:07:41.701Z,27.20
2019-03-29T15:10:14.100Z,25.90
2019-03-29T15:12:43.443Z,24.37
2019-03-29T15:15:12.767Z,25.17
2019-03-29T15:17:42.207Z,25.20
2019-03-29T15:20:14.752Z,26.13
2019-03-29T15:22:42.794Z,25.40
2019-03-29T15:25:12.207Z,25.90
2019-03-29T15:27:41.534Z,24.60
2019-03-29T15:30:12.383Z,26.77
2019-03-29T15:32:41.722Z,25.20
2019-03-29T15:35:11.406Z,27.43
2019-03-29T15:37:40.743Z,26.10
2019-03-29T15:40:10.512Z,26.40
2019-03-29T15:42:39.839Z,26.30
2019-03-29T15:45:19.708Z,26.40
2019-03-29T15:47:40.686Z,26.00
2019-03-29T15:50:10.804Z,27.10
2019-03-29T15:52:40.132Z,27.27
2019-03-29T15:55:11.358Z,26.33
2019-03-29T15:57:40.588Z,27.90
2019-03-29T16:00:11.241Z,26.00
2019-03-29T16:02:40.597Z,26.57
2019-03-29T16:05:10.019Z,26.30
2019-03-29T16:07:39.346Z,27.43
2019-03-29T16:10:08.685Z,28.13
2019-03-29T16:12:38.023Z,28.47
2019-03-29T16:15:07.986Z,26.53
2019-03-29T16:17:37.320Z,26.80
2019-03-29T16:20:06.739Z,28.43
2019-03-29T16:22:36.085Z,28.40
2019-03-29T16:25:07.060Z,27.53
2019-03-29T16:27:36.393Z,27.47
2019-03-29T16:30:06.771Z,27.53
2019-03-29T16:32:37.032Z,29.17
2019-03-29T16:35:07.987Z,28.67
2019-03-29T16:37:37.311Z,27.87
2019-03-29T16:40:07.096Z,26.97
2019-03-29T16:42:36.728Z,27.87
2019-03-29T16:45:07.333Z,30.90
2019-03-29T16:47:36.675Z,28.40
2019-03-29T16:50:06.871Z,28.53
2019-03-29T16:52:36.201Z,28.23
2019-03-29T16:55:13.746Z,29.10
2019-03-29T16:57:38.552Z,29.63
2019-03-29T17:00:12.565Z,28.17
2019-03-29T17:02:42.343Z,28.87
2019-03-29T17:05:11.858Z,28.40
2019-03-29T17:07:41.274Z,29.30
2019-03-29T17:10:10.738Z,29.37
2019-03-29T17:12:40.098Z,29.43
2019-03-29T17:15:09.980Z,28.77
2019-03-29T17:17:40.276Z,28.87
2019-03-29T17:20:10.579Z,29.43
2019-03-29T17:22:43.119Z,29.63
2019-03-29T17:25:10.957Z,29.23
2019-03-29T17:27:40.452Z,28.40
2019-03-29T17:30:11.521Z,28.93
2019-03-29T17:32:40.930Z,27.90
2019-03-29T17:35:10.282Z,28.23
2019-03-29T17:37:39.603Z,29.47
2019-03-29T17:40:09.175Z,28.57
2019-03-29T17:42:39.472Z,29.60
2019-03-29T17:45:09.076Z,29.80
2019-03-29T17:47:38.419Z,29.30
2019-03-29T17:50:08.016Z,30.37
2019-03-29T17:52:37.824Z,30.07
2019-03-29T17:55:08.292Z,28.77
2019-03-29T17:57:37.643Z,30.13
2019-03-29T18:00:08.104Z,28.80
2019-03-29T18:02:37.528Z,29.47
2019-03-29T18:05:08.960Z,28.83
2019-03-29T18:07:38.328Z,31.23
2019-03-29T18:10:08.597Z,31.17
2019-03-29T18:12:37.928Z,32.23
2019-03-29T18:15:07.891Z,32.53
2019-03-29T18:17:37.227Z,32.83
2019-03-29T18:20:08.297Z,32.80
2019-03-29T18:22:37.884Z,34.27
2019-03-29T18:25:08.267Z,33.67
2019-03-29T18:27:37.639Z,35.83
2019-03-29T18:30:12.164Z,34.07
2019-03-29T18:32:42.748Z,34.67
2019-03-29T18:35:12.071Z,35.63
2019-03-29T18:37:41.943Z,35.90
2019-03-29T18:40:25.791Z,34.93
2019-03-29T18:42:55.715Z,35.50
2019-03-29T18:45:25.132Z,36.37
2019-03-29T18:47:54.483Z,37.47
2019-03-29T18:50:23.812Z,36.97
2019-03-29T18:52:53.144Z,38.10
2019-03-29T18:55:22.475Z,35.83
2019-03-29T18:57:51.828Z,36.80
2019-03-29T19:00:29.494Z,37.77
2019-03-29T19:02:58.834Z,46.27
2019-03-29T19:05:28.439Z,48.50
2019-03-29T19:07:57.943Z,50.80
2019-03-29T19:10:27.276Z,47.50
2019-03-29T19:12:56.603Z,42.03
2019-03-29T19:15:25.924Z,39.60
2019-03-29T19:17:55.424Z,43.27
2019-03-29T19:20:27.871Z,41.33
2019-03-29T19:22:55.773Z,41.57
2019-03-29T19:25:25.098Z,41.20
2019-03-29T19:27:54.507Z,42.17
2019-03-29T19:30:24.204Z,41.90
2019-03-29T19:32:53.599Z,43.60
2019-03-29T19:35:23.011Z,42.47
2019-03-29T19:37:52.339Z,41.60
2019-03-29T19:40:21.674Z,43.40
2019-03-29T19:42:51.160Z,42.13
2019-03-29T19:45:20.661Z,39.10
2019-03-29T19:47:50.102Z,41.23
2019-03-29T19:50:19.848Z,40.53
2019-03-29T19:52:49.171Z,39.13
2019-03-29T19:55:18.544Z,39.10
2019-03-29T19:57:47.937Z,41.20
2019-03-29T20:00:17.556Z,41.70
2019-03-29T20:02:46.880Z,43.40
2019-03-29T20:05:27.191Z,41.67
2019-03-29T20:07:57.252Z,43.07
2019-03-29T20:10:26.601Z,44.27
2019-03-29T20:12:57.019Z,38.80
2019-03-29T20:15:26.367Z,40.20
2019-03-29T20:17:56.883Z,39.37
2019-03-29T20:20:26.869Z,37.53
2019-03-29T20:22:56.847Z,39.63
2019-03-29T20:25:26.251Z,39.53
2019-03-29T20:27:58.442Z,38.27
2019-03-29T20:30:27.047Z,37.43
2019-03-29T20:32:56.384Z,37.63
2019-03-29T20:35:25.711Z,39.47
2019-03-29T20:37:55.031Z,40.97
2019-03-29T20:40:24.530Z,39.97
2019-03-29T20:42:53.862Z,42.47
2019-03-29T20:45:23.201Z,43.13
2019-03-29T20:47:52.516Z,47.97
2019-03-29T20:50:21.936Z,45.03
2019-03-29T20:52:51.262Z,46.90
2019-03-29T20:55:20.596Z,45.53
2019-03-29T20:57:50.012Z,42.97
2019-03-29T21:00:19.883Z,42.63
2019-03-29T21:02:49.227Z,41.37
2019-03-29T21:05:18.552Z,36.53
2019-03-29T21:07:47.890Z,35.40
2019-03-29T21:10:18.419Z,35.43
2019-03-29T21:12:47.776Z,30.27
2019-03-29T21:15:17.705Z,38.47
2019-03-29T21:17:56.799Z,41.13
2019-03-29T21:20:18.131Z,37.60
2019-03-29T21:22:47.527Z,30.03
2019-03-29T21:25:16.862Z,22.00
2019-03-29T21:27:46.197Z,19.87
2019-03-29T21:30:15.837Z,16.97
2019-03-29T21:32:45.159Z,35.90
2019-03-29T21:35:14.495Z,33.80
2019-03-29T21:37:43.828Z,30.43
2019-03-29T21:40:13.899Z,25.23
2019-03-29T21:42:43.228Z,17.57
2019-03-29T21:45:27.714Z,13.70
2019-03-29T21:47:45.699Z,11.90
2019-03-29T21:50:15.472Z,13.40
2019-03-29T21:52:44.822Z,12.27
2019-03-29T21:55:14.179Z,14.00
2019-03-29T21:57:43.630Z,14.17
2019-03-29T22:00:13.934Z,15.60
2019-03-29T22:02:43.287Z,15.23
2019-03-29T22:05:12.949Z,14.77
2019-03-29T22:07:42.314Z,19.23
2019-03-29T22:10:12.048Z,22.87
2019-03-29T22:12:43.214Z,20.83
2019-03-29T22:15:12.861Z,19.73
2019-03-29T22:17:42.216Z,19.23
2019-03-29T22:20:11.981Z,19.13
2019-03-29T22:22:41.355Z,21.07
2019-03-29T22:25:10.930Z,20.57
2019-03-29T22:27:40.282Z,19.00
2019-03-29T22:30:10.740Z,14.57
2019-03-29T22:32:40.099Z,13.83
2019-03-29T22:35:09.586Z,13.80
2019-03-29T22:37:39.880Z,15.40
2019-03-29T22:40:09.647Z,17.70
2019-03-29T22:42:38.976Z,20.40
2019-03-29T22:45:08.857Z,19.70
2019-03-29T22:47:38.200Z,14.27
2019-03-29T22:50:09.134Z,16.17
2019-03-29T22:52:38.487Z,13.67
2019-03-29T22:55:08.543Z,12.70
2019-03-29T22:57:37.874Z,12.70
2019-03-29T23:00:15.819Z,11.40
2019-03-29T23:02:46.755Z,11.47
2019-03-29T23:05:16.095Z,12.60
2019-03-29T23:07:45.492Z,11.83
2019-03-29T23:10:14.819Z,11.73
2019-03-29T23:12:44.164Z,11.43
2019-03-29T23:15:13.740Z,12.90
2019-03-29T23:17:43.067Z,12.43
2019-03-29T23:20:12.644Z,12.27
2019-03-29T23:22:41.964Z,13.13
2019-03-29T23:25:11.368Z,10.67
2019-03-29T23:27:40.691Z,13.63
2019-03-29T23:30:10.199Z,17.43
2019-03-29T23:32:39.511Z,13.03
2019-03-29T23:35:09.083Z,14.20
2019-03-29T23:37:38.424Z,12.73
2019-03-29T23:40:07.926Z,13.47
2019-03-29T23:42:37.259Z,15.27
2019-03-29T23:45:07.394Z,16.83
2019-03-29T23:47:36.711Z,14.77
2019-03-29T23:50:06.059Z,14.90
2019-03-29T23:52:35.414Z,14.37
2019-03-29T23:55:05.756Z,12.97
2019-03-29T23:57:35.084Z,14.40
